createdAt,value
2023-01-15T00:00:00.422Z,4.28
2023-01-15T00:02:28.244Z,3.75
2023-01-15T00:04:56.224Z,3.42
2023-01-15T00:07:24.063Z,3.03
2023-01-15T00:09:52.174Z,1.92
2023-01-15T00:12:19.969Z,5.95
2023-01-15T00:14:47.754Z,3.38
2023-01-15T00:17:15.669Z,3.55
2023-01-15T00:19:43.392Z,7.97
2023-01-15T00:22:11.170Z,9.43
2023-01-15T00:24:57.522Z,15.85
2023-01-15T00:27:41.198Z,9.68
2023-01-15T00:30:11.745Z,20.90
2023-01-15T00:32:43.127Z,13.25
2023-01-15T00:35:21.973Z,10.93
2023-01-15T00:37:50.475Z,7.90
2023-01-15T00:40:20.053Z,6.35
2023-01-15T00:42:54.031Z,7.95
2023-01-15T00:45:22.882Z,5.57
2023-01-15T00:47:51.167Z,6.07
2023-01-15T00:50:19.089Z,7.78
2023-01-15T00:52:46.925Z,10.23
2023-01-15T00:55:14.719Z,4.28
2023-01-15T00:57:42.621Z,3.35
2023-01-15T01:00:12.702Z,6.47
2023-01-15T01:02:41.100Z,5.25
2023-01-15T01:05:09.497Z,5.65
2023-01-15T01:07:37.311Z,5.93
2023-01-15T01:10:05.523Z,4.40
2023-01-15T01:12:33.371Z,3.17
2023-01-15T01:15:02.191Z,6.28
2023-01-15T01:17:30.585Z,7.60
2023-01-15T01:19:58.384Z,6.72
2023-01-15T01:22:26.536Z,5.85
2023-01-15T01:24:54.522Z,3.83
2023-01-15T01:27:23.699Z,9.80
2023-01-15T01:29:51.673Z,3.85
2023-01-15T01:32:19.577Z,7.15
2023-01-15T01:34:47.916Z,10.05
2023-01-15T01:37:15.733Z,3.85
2023-01-15T01:39:43.727Z,10.52
2023-01-15T01:42:16.308Z,5.88
2023-01-15T01:44:44.257Z,7.65
2023-01-15T01:47:19.262Z,6.90
2023-01-15T01:49:47.477Z,3.90
2023-01-15T01:52:19.533Z,4.97
2023-01-15T01:54:47.343Z,10.52
2023-01-15T01:57:15.239Z,12.45
2023-01-15T01:59:43.211Z,6.22
2023-01-15T02:02:11.173Z,13.60
2023-01-15T02:04:39.038Z,11.52
2023-01-15T02:07:06.879Z,7.28
2023-01-15T02:09:35.705Z,6.45
2023-01-15T02:12:18.209Z,11.05
2023-01-15T02:15:19.987Z,4.05
2023-01-15T02:18:10.934Z,4.10
2023-01-15T02:20:42.076Z,4.95
2023-01-15T02:23:34.312Z,6.10
2023-01-15T02:26:08.183Z,7.85
2023-01-15T02:28:38.896Z,8.38
2023-01-15T02:31:46.569Z,9.80
2023-01-15T02:34:16.496Z,4.07
2023-01-15T02:36:48.422Z,7.00
2023-01-15T02:39:23.799Z,7.45
2023-01-15T02:41:52.512Z,8.90
2023-01-15T02:44:21.553Z,12.75
2023-01-15T02:46:52.155Z,10.02
2023-01-15T02:49:20.685Z,11.73
2023-01-15T02:51:57.334Z,7.47
2023-01-15T02:54:25.816Z,7.90
2023-01-15T02:56:54.219Z,13.55
2023-01-15T02:59:36.784Z,21.15
2023-01-15T03:02:07.383Z,23.20
2023-01-15T03:05:01.690Z,30.40
2023-01-15T03:07:53.517Z,28.73
2023-01-15T03:10:26.016Z,21.57
2023-01-15T03:13:05.504Z,14.32
2023-01-15T03:16:18.082Z,16.17
2023-01-15T03:19:15.838Z,13.63
2023-01-15T03:22:03.808Z,9.80
2023-01-15T03:24:45.486Z,8.82
2023-01-15T03:27:14.176Z,7.47
2023-01-15T03:29:48.087Z,8.05
2023-01-15T03:32:17.377Z,7.55
2023-01-15T03:34:53.005Z,11.77
2023-01-15T03:37:23.727Z,8.65
2023-01-15T03:39:52.740Z,8.98
2023-01-15T03:42:43.717Z,12.43
2023-01-15T03:45:23.521Z,13.40
2023-01-15T03:48:11.239Z,20.35
2023-01-15T03:50:44.865Z,21.08
2023-01-15T03:53:27.983Z,13.80
2023-01-15T03:56:27.333Z,17.83
2023-01-15T03:59:01.800Z,23.10
2023-01-15T04:01:45.792Z,20.02
2023-01-15T04:04:13.883Z,18.75
2023-01-15T04:06:42.099Z,18.70
2023-01-15T04:09:10.889Z,28.67
2023-01-15T04:11:39.063Z,21.08
2023-01-15T04:14:08.324Z,19.58
2023-01-15T04:16:49.064Z,23.58
2023-01-15T04:19:17.179Z,27.05
2023-01-15T04:22:05.412Z,23.10
2023-01-15T04:24:33.364Z,16.52
2023-01-15T04:27:01.125Z,17.50
2023-01-15T04:29:28.882Z,23.60
2023-01-15T04:31:58.156Z,18.42
2023-01-15T04:34:30.879Z,18.48
2023-01-15T04:36:58.946Z,23.67
2023-01-15T04:39:26.884Z,22.77
2023-01-15T04:42:17.560Z,17.60
2023-01-15T04:44:45.324Z,30.27
2023-01-15T04:47:13.154Z,24.52
2023-01-15T04:49:40.946Z,21.60
2023-01-15T04:52:08.812Z,14.43
2023-01-15T04:54:36.816Z,22.77
2023-01-15T04:57:04.777Z,48.97
2023-01-15T04:59:34.276Z,50.15
2023-01-15T05:02:05.962Z,19.98
2023-01-15T05:04:34.314Z,22.73
2023-01-15T05:07:03.363Z,29.00
2023-01-15T05:09:31.580Z,20.73
2023-01-15T05:11:59.246Z,7.07
2023-01-15T05:14:27.110Z,14.40
2023-01-15T05:16:54.959Z,5.00
2023-01-15T05:19:22.792Z,10.88
2023-01-15T05:21:51.935Z,23.45
2023-01-15T05:24:19.954Z,6.88
2023-01-15T05:26:47.679Z,10.88
2023-01-15T05:29:15.800Z,12.23
2023-01-15T05:31:45.530Z,14.65
2023-01-15T05:34:13.737Z,11.70
2023-01-15T05:36:41.720Z,14.68
2023-01-15T05:39:09.828Z,8.98
2023-01-15T05:41:50.048Z,12.68
2023-01-15T05:44:31.128Z,13.95
2023-01-15T05:47:00.625Z,11.40
2023-01-15T05:49:28.802Z,8.00
2023-01-15T05:51:56.610Z,9.80
2023-01-15T05:54:25.940Z,10.50
2023-01-15T05:56:54.527Z,10.13
2023-01-15T05:59:24.144Z,8.18
2023-01-15T06:01:52.469Z,11.75
2023-01-15T06:04:21.979Z,8.95
2023-01-15T06:06:50.516Z,8.32
2023-01-15T06:09:19.047Z,8.68
2023-01-15T06:11:47.809Z,5.57
2023-01-15T06:14:15.961Z,15.90
2023-01-15T06:16:44.018Z,6.07
2023-01-15T06:19:12.347Z,10.90
2023-01-15T06:21:40.308Z,8.75
2023-01-15T06:24:08.682Z,5.82
2023-01-15T06:26:36.569Z,8.73
2023-01-15T06:29:04.492Z,10.05
2023-01-15T06:31:33.252Z,12.45
2023-01-15T06:34:01.365Z,15.07
2023-01-15T06:36:29.565Z,9.13
2023-01-15T06:38:57.583Z,9.15
2023-01-15T06:41:45.081Z,6.40
2023-01-15T06:44:40.356Z,7.90
2023-01-15T06:47:22.669Z,11.00
2023-01-15T06:49:56.394Z,13.48
2023-01-15T06:52:25.438Z,11.88
2023-01-15T06:54:53.380Z,8.57
2023-01-15T06:57:21.125Z,9.70
2023-01-15T06:59:49.777Z,7.55
2023-01-15T07:02:18.617Z,8.00
2023-01-15T07:04:47.446Z,9.13
2023-01-15T07:07:19.341Z,11.90
2023-01-15T07:09:47.302Z,13.18
2023-01-15T07:12:15.306Z,10.48
2023-01-15T07:14:43.346Z,14.05
2023-01-15T07:17:11.410Z,13.23
2023-01-15T07:19:39.397Z,13.55
2023-01-15T07:22:07.918Z,12.57
2023-01-15T07:24:35.706Z,9.10
2023-01-15T07:27:03.774Z,13.10
2023-01-15T07:29:31.801Z,14.07
2023-01-15T07:31:59.637Z,15.55
2023-01-15T07:34:27.561Z,15.45
2023-01-15T07:36:55.365Z,15.75
2023-01-15T07:39:23.173Z,12.38
2023-01-15T07:42:09.374Z,18.05
2023-01-15T07:44:55.561Z,16.52
2023-01-15T07:47:43.467Z,15.15
2023-01-15T07:50:20.991Z,12.15
2023-01-15T07:52:48.875Z,17.48
2023-01-15T07:55:16.693Z,13.40
2023-01-15T07:57:44.572Z,14.25
2023-01-15T08:00:14.590Z,14.02
2023-01-15T08:02:42.363Z,12.30
2023-01-15T08:05:12.016Z,16.08
2023-01-15T08:07:40.678Z,22.83
2023-01-15T08:10:10.256Z,13.50
2023-01-15T08:12:57.542Z,12.68
2023-01-15T08:15:26.477Z,9.48
2023-01-15T08:17:54.517Z,14.07
2023-01-15T08:20:24.169Z,13.20
2023-01-15T08:22:52.215Z,13.35
2023-01-15T08:25:21.516Z,13.07
2023-01-15T08:27:55.544Z,18.67
2023-01-15T08:30:25.243Z,15.52
2023-01-15T08:32:53.217Z,22.42
2023-01-15T08:35:21.185Z,28.83
2023-01-15T08:37:49.154Z,17.73
2023-01-15T08:40:17.376Z,16.95
2023-01-15T08:42:45.751Z,20.88
2023-01-15T08:45:13.887Z,13.73
2023-01-15T08:47:41.658Z,14.43
2023-01-15T08:50:10.330Z,31.75
2023-01-15T08:52:40.723Z,17.67
2023-01-15T08:55:08.923Z,20.88
2023-01-15T08:57:38.162Z,25.33
2023-01-15T09:00:07.249Z,38.22
2023-01-15T09:02:35.081Z,30.75
2023-01-15T09:05:03.132Z,23.02
2023-01-15T09:07:31.200Z,23.02
2023-01-15T09:09:59.236Z,21.13
2023-01-15T09:12:27.910Z,20.05
2023-01-15T09:15:02.534Z,27.15
2023-01-15T09:17:32.116Z,20.20
2023-01-15T09:20:00.298Z,18.75
2023-01-15T09:22:31.312Z,16.70
2023-01-15T09:24:59.502Z,18.27
2023-01-15T09:27:29.310Z,19.77
2023-01-15T09:29:57.316Z,14.07
2023-01-15T09:32:25.119Z,21.90
2023-01-15T09:34:53.015Z,28.67
2023-01-15T09:37:20.947Z,17.48
2023-01-15T09:39:48.858Z,19.33
2023-01-15T09:42:29.131Z,19.92
2023-01-15T09:45:00.788Z,18.55
2023-01-15T09:47:32.045Z,18.23
2023-01-15T09:50:06.167Z,17.05
2023-01-15T09:52:52.601Z,24.10
2023-01-15T09:55:23.025Z,19.35
2023-01-15T09:57:52.793Z,17.70
2023-01-15T10:00:22.624Z,23.77
2023-01-15T10:02:59.432Z,24.77
2023-01-15T10:05:32.249Z,24.75
2023-01-15T10:10:37.824Z,27.13
2023-01-15T10:13:31.652Z,21.38
2023-01-15T10:15:59.559Z,27.48
2023-01-15T10:18:27.994Z,17.88
2023-01-15T10:21:03.735Z,28.40
2023-01-15T10:23:40.704Z,29.50
2023-01-15T10:26:19.262Z,24.20
2023-01-15T10:28:58.287Z,22.90
2023-01-15T10:31:43.822Z,31.25
2023-01-15T10:34:26.619Z,35.08
2023-01-15T10:37:16.855Z,43.13
2023-01-15T10:40:02.528Z,23.42
2023-01-15T10:42:43.943Z,28.88
2023-01-15T10:45:26.434Z,31.92
2023-01-15T10:47:56.985Z,21.88
2023-01-15T10:50:26.095Z,27.80
2023-01-15T10:53:06.621Z,28.45
2023-01-15T10:55:40.739Z,31.90
2023-01-15T10:58:21.936Z,36.45
2023-01-15T11:00:53.180Z,27.88
2023-01-15T11:03:23.363Z,31.52
2023-01-15T11:05:51.631Z,43.72
2023-01-15T11:09:09.258Z,34.40
2023-01-15T11:11:53.241Z,23.88
2023-01-15T11:14:39.354Z,20.73
2023-01-15T11:17:32.050Z,21.67
2023-01-15T11:19:59.967Z,18.20
2023-01-15T11:22:29.143Z,18.10
2023-01-15T11:25:01.178Z,17.35
2023-01-15T11:27:33.178Z,13.63
2023-01-15T11:30:02.373Z,17.17
2023-01-15T11:32:35.069Z,17.67
2023-01-15T11:35:17.391Z,19.60
2023-01-15T11:37:45.409Z,21.25
2023-01-15T11:40:21.475Z,18.77
2023-01-15T11:43:08.539Z,26.02
2023-01-15T11:46:05.894Z,29.60
2023-01-15T11:49:10.107Z,23.92
2023-01-15T11:51:43.051Z,39.17
2023-01-15T11:54:14.222Z,30.25
2023-01-15T11:56:44.499Z,27.85
2023-01-15T11:59:18.240Z,36.97
2023-01-15T12:01:55.309Z,39.35
2023-01-15T12:05:02.004Z,45.03
2023-01-15T12:07:29.973Z,43.67
2023-01-15T12:10:11.965Z,38.53
2023-01-15T12:13:01.935Z,32.10
2023-01-15T12:15:34.764Z,40.25
2023-01-15T12:20:58.414Z,35.85
2023-01-15T12:23:26.346Z,30.17
2023-01-15T12:25:57.235Z,31.02
2023-01-15T12:28:29.020Z,27.08
2023-01-15T12:31:09.801Z,24.05
2023-01-15T12:33:37.743Z,23.95
2023-01-15T12:36:24.077Z,26.58
2023-01-15T12:38:55.273Z,18.77
2023-01-15T12:42:00.615Z,26.75
2023-01-15T12:45:06.691Z,20.67
2023-01-15T12:47:47.666Z,20.42
2023-01-15T12:50:45.586Z,16.63
2023-01-15T12:53:17.406Z,17.50
2023-01-15T12:55:52.742Z,15.80
2023-01-15T12:58:39.386Z,20.23
2023-01-15T13:01:25.056Z,13.75
2023-01-15T13:04:13.337Z,19.33
2023-01-15T13:06:45.037Z,30.42
2023-01-15T13:09:46.314Z,31.52
2023-01-15T13:12:17.746Z,18.50
2023-01-15T13:14:46.853Z,21.15
2023-01-15T13:17:20.666Z,19.73
2023-01-15T13:20:06.904Z,12.88
2023-01-15T13:22:35.870Z,20.42
2023-01-15T13:25:28.759Z,12.50
2023-01-15T13:28:19.241Z,15.00
2023-01-15T13:30:57.130Z,11.57
2023-01-15T13:33:34.317Z,13.82
2023-01-15T13:36:26.508Z,15.90
2023-01-15T13:38:56.215Z,18.55
2023-01-15T13:41:46.680Z,14.32
2023-01-15T13:44:19.723Z,18.58
2023-01-15T13:46:48.505Z,26.42
2023-01-15T13:49:22.341Z,32.08
2023-01-15T13:51:50.315Z,43.38
2023-01-15T13:54:19.999Z,65.25
2023-01-15T13:56:47.973Z,42.63
2023-01-15T13:59:49.874Z,25.17
2023-01-15T14:02:35.218Z,16.48
2023-01-15T14:05:18.334Z,16.48
2023-01-15T14:07:46.209Z,19.20
2023-01-15T14:10:22.858Z,24.52
2023-01-15T14:13:43.008Z,18.15
2023-01-15T14:16:19.904Z,20.08
2023-01-15T14:19:08.109Z,16.70
2023-01-15T14:22:02.121Z,17.30
2023-01-15T14:24:46.613Z,22.30
2023-01-15T14:27:26.630Z,19.90
2023-01-15T14:30:09.111Z,13.57
2023-01-15T14:33:06.477Z,21.77
2023-01-15T14:35:36.449Z,21.08
2023-01-15T14:38:06.521Z,24.67
2023-01-15T14:40:35.359Z,29.40
2023-01-15T14:43:19.867Z,23.13
2023-01-15T14:45:48.674Z,24.10
2023-01-15T14:48:20.423Z,21.40
2023-01-15T14:50:49.270Z,21.35
2023-01-15T14:53:31.376Z,18.10
2023-01-15T14:56:14.377Z,15.43
2023-01-15T15:01:22.252Z,12.20
2023-01-15T15:04:28.793Z,14.38
2023-01-15T15:07:00.714Z,13.82
2023-01-15T15:09:43.745Z,9.97
2023-01-15T15:12:21.576Z,13.40
2023-01-15T15:15:02.473Z,10.52
2023-01-15T15:17:52.716Z,10.18
2023-01-15T15:20:38.409Z,12.45
2023-01-15T15:23:12.899Z,16.17
2023-01-15T15:25:40.918Z,15.80
2023-01-15T15:28:11.068Z,13.07
2023-01-15T15:30:45.767Z,14.75
2023-01-15T15:33:20.647Z,18.58
2023-01-15T15:35:55.788Z,13.30
2023-01-15T15:38:24.583Z,13.48
2023-01-15T15:40:59.997Z,15.73
2023-01-15T15:44:07.437Z,14.90
2023-01-15T15:46:55.110Z,14.13
2023-01-15T15:49:22.980Z,15.88
2023-01-15T15:51:52.024Z,14.93
2023-01-15T15:54:28.330Z,15.00
2023-01-15T15:57:24.244Z,13.20
2023-01-15T15:59:52.755Z,10.57
2023-01-15T16:02:43.404Z,11.02
2023-01-15T16:05:28.881Z,11.73
2023-01-15T16:07:56.693Z,11.95
2023-01-15T16:10:34.290Z,11.85
2023-01-15T16:13:04.752Z,12.93
2023-01-15T16:15:35.283Z,19.42
2023-01-15T16:18:03.239Z,12.65
2023-01-15T16:20:31.206Z,18.60
2023-01-15T16:23:00.201Z,12.68
2023-01-15T16:25:34.427Z,15.15
2023-01-15T16:28:02.605Z,16.17
2023-01-15T16:30:32.614Z,4.65
2023-01-15T16:33:02.648Z,12.32
2023-01-15T16:35:30.486Z,18.23
2023-01-15T16:37:59.629Z,11.00
2023-01-15T16:40:33.821Z,15.07
2023-01-15T16:43:22.872Z,8.48
2023-01-15T16:45:57.020Z,13.90
2023-01-15T16:48:37.073Z,10.35
2023-01-15T16:51:23.631Z,10.70
2023-01-15T16:53:51.463Z,5.82
2023-01-15T16:56:26.612Z,3.55
2023-01-15T16:58:54.707Z,7.18
2023-01-15T17:01:46.696Z,4.78
2023-01-15T17:04:28.326Z,5.25
2023-01-15T17:07:07.851Z,10.20
2023-01-15T17:09:37.095Z,10.90
2023-01-15T17:12:08.798Z,6.32
2023-01-15T17:14:36.776Z,6.40
2023-01-15T17:17:23.002Z,8.40
2023-01-15T17:19:51.367Z,11.90
2023-01-15T17:22:28.524Z,8.30
2023-01-15T17:24:57.788Z,10.45
2023-01-15T17:27:26.382Z,11.25
2023-01-15T17:29:54.329Z,9.20
2023-01-15T17:32:30.437Z,7.30
2023-01-15T17:34:58.260Z,11.88
2023-01-15T17:37:26.186Z,8.50
2023-01-15T17:39:53.977Z,8.38
2023-01-15T17:42:21.851Z,11.02
2023-01-15T17:44:51.467Z,9.70
2023-01-15T17:47:19.329Z,6.57
2023-01-15T17:49:47.100Z,9.80
2023-01-15T17:52:19.788Z,10.35
2023-01-15T17:58:08.639Z,14.05
2023-01-15T18:00:55.693Z,5.18
2023-01-15T18:03:43.689Z,7.03
2023-01-15T18:06:12.572Z,9.00
2023-01-15T18:08:41.394Z,6.63
2023-01-15T18:11:09.334Z,8.02
2023-01-15T18:13:37.203Z,6.35
2023-01-15T18:16:05.265Z,7.30
2023-01-15T18:18:33.030Z,7.10
2023-01-15T18:21:01.565Z,7.60
2023-01-15T18:23:29.856Z,11.20
2023-01-15T18:25:57.707Z,6.35
2023-01-15T18:28:25.714Z,8.27
2023-01-15T18:30:53.670Z,5.13
2023-01-15T18:33:21.395Z,3.97
2023-01-15T18:35:49.179Z,9.77
2023-01-15T18:38:16.941Z,11.82
2023-01-15T18:40:44.739Z,7.55
2023-01-15T18:43:31.018Z,6.32
2023-01-15T18:46:16.990Z,6.65
2023-01-15T18:48:44.808Z,5.55
2023-01-15T18:51:12.614Z,5.65
2023-01-15T18:53:40.465Z,5.57
2023-01-15T18:56:08.435Z,8.98
2023-01-15T18:58:36.321Z,8.73
2023-01-15T19:01:08.180Z,11.30
2023-01-15T19:03:36.161Z,4.90
2023-01-15T19:06:08.877Z,5.60
2023-01-15T19:08:36.738Z,11.77
2023-01-15T19:11:13.724Z,8.73
2023-01-15T19:13:41.660Z,5.65
2023-01-15T19:16:28.052Z,4.30
2023-01-15T19:18:55.964Z,9.40
2023-01-15T19:21:25.248Z,5.03
2023-01-15T19:23:53.153Z,9.55
2023-01-15T19:26:20.906Z,4.43
2023-01-15T19:28:48.845Z,6.85
2023-01-15T19:31:36.746Z,10.80
2023-01-15T19:34:32.263Z,11.20
2023-01-15T19:36:55.873Z,6.22
2023-01-15T19:39:23.824Z,6.95
2023-01-15T19:42:09.903Z,7.28
2023-01-15T19:44:56.456Z,10.15
2023-01-15T19:47:53.179Z,9.52
2023-01-15T19:50:25.675Z,6.32
2023-01-15T19:52:54.553Z,8.95
2023-01-15T19:55:23.609Z,5.10
2023-01-15T19:58:12.063Z,10.48
2023-01-15T20:00:40.634Z,6.50
2023-01-15T20:03:11.377Z,6.45
2023-01-15T20:05:39.689Z,10.85
2023-01-15T20:08:09.634Z,14.80
2023-01-15T20:10:38.932Z,7.07
2023-01-15T20:13:25.153Z,13.02
2023-01-15T20:15:53.047Z,5.38
2023-01-15T20:18:23.234Z,8.30
2023-01-15T20:20:51.196Z,5.20
2023-01-15T20:23:18.913Z,12.52
2023-01-15T20:25:50.718Z,10.45
2023-01-15T20:28:18.936Z,5.33
2023-01-15T20:30:47.178Z,13.75
2023-01-15T20:33:14.951Z,3.88
2023-01-15T20:35:42.865Z,5.30
2023-01-15T20:38:10.705Z,6.05
2023-01-15T20:40:38.557Z,14.38
2023-01-15T20:43:24.455Z,6.13
2023-01-15T20:45:52.402Z,5.90
2023-01-15T20:48:38.465Z,4.88
2023-01-15T20:51:15.224Z,8.07
2023-01-15T20:53:43.170Z,14.18
2023-01-15T20:56:15.047Z,6.47
2023-01-15T20:58:42.974Z,14.20
2023-01-15T21:01:11.389Z,23.73
2023-01-15T21:03:39.479Z,16.50
2023-01-15T21:06:08.074Z,19.75
2023-01-15T21:08:35.907Z,25.10
2023-01-15T21:11:03.973Z,19.75
2023-01-15T21:13:31.768Z,9.55
2023-01-15T21:16:04.164Z,11.57
2023-01-15T21:18:32.836Z,11.55
2023-01-15T21:21:00.824Z,4.88
2023-01-15T21:23:28.632Z,12.90
2023-01-15T21:26:01.199Z,10.80
2023-01-15T21:28:29.710Z,10.40
2023-01-15T21:30:57.674Z,10.95
2023-01-15T21:33:25.398Z,10.77
2023-01-15T21:35:53.207Z,7.00
2023-01-15T21:38:21.116Z,15.02
2023-01-15T21:40:48.985Z,14.45
2023-01-15T21:43:35.032Z,7.88
2023-01-15T21:46:06.349Z,12.43
2023-01-15T21:48:34.396Z,8.35
2023-01-15T21:51:06.671Z,12.48
2023-01-15T21:53:34.547Z,7.82
2023-01-15T21:56:02.441Z,8.30
2023-01-15T21:58:30.308Z,8.13
2023-01-15T22:00:58.499Z,6.75
2023-01-15T22:03:26.256Z,5.03
2023-01-15T22:05:54.079Z,9.65
2023-01-15T22:08:21.881Z,7.25
2023-01-15T22:10:50.303Z,3.75
2023-01-15T22:13:18.160Z,7.25
2023-01-15T22:15:53.309Z,6.28
2023-01-15T22:18:21.223Z,4.25
2023-01-15T22:21:00.034Z,5.55
2023-01-15T22:23:27.912Z,5.78
2023-01-15T22:25:55.773Z,5.82
2023-01-15T22:28:23.697Z,6.93
2023-01-15T22:30:51.577Z,7.53
2023-01-15T22:33:19.394Z,7.72
2023-01-15T22:35:56.932Z,7.18
2023-01-15T22:38:24.801Z,9.95
2023-01-15T22:40:52.661Z,6.13
2023-01-15T22:43:20.417Z,4.53
2023-01-15T22:45:48.399Z,10.32
2023-01-15T22:48:16.434Z,8.50
2023-01-15T22:50:44.056Z,4.70
2023-01-15T22:53:11.900Z,8.75
2023-01-15T22:55:39.657Z,6.78
2023-01-15T22:58:07.466Z,6.90
2023-01-15T23:00:35.248Z,7.82
2023-01-15T23:03:05.719Z,8.95
2023-01-15T23:05:37.660Z,4.95
2023-01-15T23:08:05.655Z,7.20
2023-01-15T23:10:33.577Z,9.35
2023-01-15T23:13:01.407Z,7.85
2023-01-15T23:15:29.227Z,12.18
2023-01-15T23:17:57.043Z,8.93
2023-01-15T23:20:24.704Z,9.93
2023-01-15T23:22:52.632Z,7.82
2023-01-15T23:25:20.512Z,6.13
2023-01-15T23:27:48.518Z,5.85
2023-01-15T23:30:16.763Z,5.53
2023-01-15T23:32:44.653Z,6.57
2023-01-15T23:35:12.419Z,12.02
2023-01-15T23:37:40.241Z,6.50
2023-01-15T23:40:08.946Z,7.18
2023-01-15T23:42:55.043Z,5.07
2023-01-15T23:45:41.080Z,11.20
2023-01-15T23:48:08.825Z,10.25
2023-01-15T23:50:36.797Z,7.22
2023-01-15T23:53:04.829Z,7.43
2023-01-15T23:55:32.587Z,14.35
2023-01-15T23:58:00.445Z,15.45
